sensor_id;sensor_type;location;lat;lon;timestamp;temperature;humidity
15574;DHT22;7888;46.748;8.102;2022-10-17T00:01:13;16.80;49.50
15574;DHT22;7888;46.748;8.102;2022-10-17T00:03:39;16.80;49.80
15574;DHT22;7888;46.748;8.102;2022-10-17T00:06:13;16.80;49.80
15574;DHT22;7888;46.748;8.102;2022-10-17T00:08:41;16.70;49.60
15574;DHT22;7888;46.748;8.102;2022-10-17T00:11:13;16.70;49.50
15574;DHT22;7888;46.748;8.102;2022-10-17T00:13:41;16.70;49.60
15574;DHT22;7888;46.748;8.102;2022-10-17T00:16:08;16.70;49.50
15574;DHT22;7888;46.748;8.102;2022-10-17T00:18:34;16.60;49.30
15574;DHT22;7888;46.748;8.102;2022-10-17T00:21:00;16.60;49.70
15574;DHT22;7888;46.748;8.102;2022-10-17T00:23:26;16.60;49.80
15574;DHT22;7888;46.748;8.102;2022-10-17T00:26:04;16.60;50.00
15574;DHT22;7888;46.748;8.102;2022-10-17T00:28:31;16.60;50.40
15574;DHT22;7888;46.748;8.102;2022-10-17T00:31:03;16.60;49.90
15574;DHT22;7888;46.748;8.102;2022-10-17T00:33:30;16.50;50.10
15574;DHT22;7888;46.748;8.102;2022-10-17T00:36:21;16.50;49.90
15574;DHT22;7888;46.748;8.102;2022-10-17T00:38:57;16.50;49.90
15574;DHT22;7888;46.748;8.102;2022-10-17T00:41:26;16.40;49.70
15574;DHT22;7888;46.748;8.102;2022-10-17T00:44:00;16.40;49.50
15574;DHT22;7888;46.748;8.102;2022-10-17T00:46:36;16.40;50.10
15574;DHT22;7888;46.748;8.102;2022-10-17T00:49:06;16.40;50.40
15574;DHT22;7888;46.748;8.102;2022-10-17T00:51:43;16.40;50.20
15574;DHT22;7888;46.748;8.102;2022-10-17T00:54:13;16.40;50.20
15574;DHT22;7888;46.748;8.102;2022-10-17T00:56:42;16.40;49.80
15574;DHT22;7888;46.748;8.102;2022-10-17T00:59:10;16.40;49.70
15574;DHT22;7888;46.748;8.102;2022-10-17T01:01:39;16.40;49.70
15574;DHT22;7888;46.748;8.102;2022-10-17T01:04:07;16.40;49.70
15574;DHT22;7888;46.748;8.102;2022-10-17T01:06:34;16.40;49.70
15574;DHT22;7888;46.748;8.102;2022-10-17T01:09:00;16.40;49.80
15574;DHT22;7888;46.748;8.102;2022-10-17T01:31:26;16.30;49.60
15574;DHT22;7888;46.748;8.102;2022-10-17T01:34:30;16.30;49.70
15574;DHT22;7888;46.748;8.102;2022-10-17T01:37:13;16.30;49.80
15574;DHT22;7888;46.748;8.102;2022-10-17T01:39:55;16.30;49.70
15574;DHT22;7888;46.748;8.102;2022-10-17T01:46:24;16.20;49.80
15574;DHT22;7888;46.748;8.102;2022-10-17T01:48:54;16.20;49.90
15574;DHT22;7888;46.748;8.102;2022-10-17T01:51:59;16.20;49.80
15574;DHT22;7888;46.748;8.102;2022-10-17T01:54:24;16.10;50.00
15574;DHT22;7888;46.748;8.102;2022-10-17T01:56:58;16.10;49.70
15574;DHT22;7888;46.748;8.102;2022-10-17T01:59:37;16.10;49.80
15574;DHT22;7888;46.748;8.102;2022-10-17T02:02:06;16.00;49.90
15574;DHT22;7888;46.748;8.102;2022-10-17T02:04:34;16.00;49.70
15574;DHT22;7888;46.748;8.102;2022-10-17T02:07:08;16.00;50.00
15574;DHT22;7888;46.748;8.102;2022-10-17T02:09:36;16.00;50.40
15574;DHT22;7888;46.748;8.102;2022-10-17T02:12:10;16.00;50.10
15574;DHT22;7888;46.748;8.102;2022-10-17T02:20:37;16.00;50.50
15574;DHT22;7888;46.748;8.102;2022-10-17T02:23:14;15.90;50.50
15574;DHT22;7888;46.748;8.102;2022-10-17T02:26:13;15.90;50.60
15574;DHT22;7888;46.748;8.102;2022-10-17T02:31:56;15.80;50.50
15574;DHT22;7888;46.748;8.102;2022-10-17T02:34:47;15.80;50.50
15574;DHT22;7888;46.748;8.102;2022-10-17T02:37:18;15.80;50.70
15574;DHT22;7888;46.748;8.102;2022-10-17T02:39:50;15.80;50.70
15574;DHT22;7888;46.748;8.102;2022-10-17T02:42:18;15.80;50.40
15574;DHT22;7888;46.748;8.102;2022-10-17T02:44:46;15.70;50.30
15574;DHT22;7888;46.748;8.102;2022-10-17T02:47:22;15.70;50.50
15574;DHT22;7888;46.748;8.102;2022-10-17T02:49:55;15.70;50.70
15574;DHT22;7888;46.748;8.102;2022-10-17T02:55:35;15.70;51.10
15574;DHT22;7888;46.748;8.102;2022-10-17T02:58:12;15.70;50.90
15574;DHT22;7888;46.748;8.102;2022-10-17T03:00:44;15.70;50.60
15574;DHT22;7888;46.748;8.102;2022-10-17T03:03:25;15.70;50.40
15574;DHT22;7888;46.748;8.102;2022-10-17T03:05:53;15.60;50.30
15574;DHT22;7888;46.748;8.102;2022-10-17T03:08:20;15.60;50.30
15574;DHT22;7888;46.748;8.102;2022-10-17T03:10:46;15.60;50.50
15574;DHT22;7888;46.748;8.102;2022-10-17T03:13:13;15.60;50.40
15574;DHT22;7888;46.748;8.102;2022-10-17T03:15:40;15.50;50.50
15574;DHT22;7888;46.748;8.102;2022-10-17T03:18:06;15.50;50.50
15574;DHT22;7888;46.748;8.102;2022-10-17T03:20:32;15.50;50.40
15574;DHT22;7888;46.748;8.102;2022-10-17T03:22:58;15.50;50.40
15574;DHT22;7888;46.748;8.102;2022-10-17T03:25:24;15.50;50.20
15574;DHT22;7888;46.748;8.102;2022-10-17T03:27:51;15.50;50.50
15574;DHT22;7888;46.748;8.102;2022-10-17T03:30:18;15.50;50.30
15574;DHT22;7888;46.748;8.102;2022-10-17T03:32:44;15.50;50.40
15574;DHT22;7888;46.748;8.102;2022-10-17T03:35:10;15.40;50.60
15574;DHT22;7888;46.748;8.102;2022-10-17T03:37:35;15.50;50.90
15574;DHT22;7888;46.748;8.102;2022-10-17T03:40:01;15.50;51.50
15574;DHT22;7888;46.748;8.102;2022-10-17T03:42:28;15.40;50.70
15574;DHT22;7888;46.748;8.102;2022-10-17T03:44:53;15.50;50.60
15574;DHT22;7888;46.748;8.102;2022-10-17T03:47:19;15.40;50.60
15574;DHT22;7888;46.748;8.102;2022-10-17T03:49:45;15.40;50.90
15574;DHT22;7888;46.748;8.102;2022-10-17T03:52:12;15.40;50.90
15574;DHT22;7888;46.748;8.102;2022-10-17T03:54:38;15.40;50.60
15574;DHT22;7888;46.748;8.102;2022-10-17T03:57:04;15.40;50.80
15574;DHT22;7888;46.748;8.102;2022-10-17T03:59:30;15.40;50.70
15574;DHT22;7888;46.748;8.102;2022-10-17T04:01:56;15.40;50.70
15574;DHT22;7888;46.748;8.102;2022-10-17T04:04:22;15.40;50.80
15574;DHT22;7888;46.748;8.102;2022-10-17T04:06:48;15.30;51.10
15574;DHT22;7888;46.748;8.102;2022-10-17T04:09:14;15.30;51.00
15574;DHT22;7888;46.748;8.102;2022-10-17T04:11:39;15.30;51.00
15574;DHT22;7888;46.748;8.102;2022-10-17T04:14:06;15.30;50.90
15574;DHT22;7888;46.748;8.102;2022-10-17T04:16:32;15.30;51.10
15574;DHT22;7888;46.748;8.102;2022-10-17T04:18:58;15.20;50.90
15574;DHT22;7888;46.748;8.102;2022-10-17T04:21:26;15.20;51.00
15574;DHT22;7888;46.748;8.102;2022-10-17T04:23:57;15.20;51.10
15574;DHT22;7888;46.748;8.102;2022-10-17T04:26:24;15.20;51.40
15574;DHT22;7888;46.748;8.102;2022-10-17T04:28:51;15.10;51.20
15574;DHT22;7888;46.748;8.102;2022-10-17T04:31:18;15.10;51.40
15574;DHT22;7888;46.748;8.102;2022-10-17T04:33:48;15.10;51.20
15574;DHT22;7888;46.748;8.102;2022-10-17T04:36:17;15.00;51.30
15574;DHT22;7888;46.748;8.102;2022-10-17T04:38:45;15.00;51.50
15574;DHT22;7888;46.748;8.102;2022-10-17T04:41:14;15.00;51.50
15574;DHT22;7888;46.748;8.102;2022-10-17T04:43:42;15.00;51.40
15574;DHT22;7888;46.748;8.102;2022-10-17T04:46:10;14.90;51.20
15574;DHT22;7888;46.748;8.102;2022-10-17T04:48:38;14.90;51.50
15574;DHT22;7888;46.748;8.102;2022-10-17T04:51:12;14.90;51.60
15574;DHT22;7888;46.748;8.102;2022-10-17T04:53:40;14.80;51.90
15574;DHT22;7888;46.748;8.102;2022-10-17T04:56:13;14.80;51.50
15574;DHT22;7888;46.748;8.102;2022-10-17T04:58:41;14.80;51.80
15574;DHT22;7888;46.748;8.102;2022-10-17T05:01:10;14.80;51.40
15574;DHT22;7888;46.748;8.102;2022-10-17T05:03:38;14.80;51.30
15574;DHT22;7888;46.748;8.102;2022-10-17T05:06:10;14.80;51.30
15574;DHT22;7888;46.748;8.102;2022-10-17T05:08:37;14.80;51.40
15574;DHT22;7888;46.748;8.102;2022-10-17T05:11:04;14.80;51.30
15574;DHT22;7888;46.748;8.102;2022-10-17T05:13:31;14.80;51.50
15574;DHT22;7888;46.748;8.102;2022-10-17T05:15:59;14.80;51.60
15574;DHT22;7888;46.748;8.102;2022-10-17T05:18:27;14.80;51.70
15574;DHT22;7888;46.748;8.102;2022-10-17T05:20:53;14.80;51.50
15574;DHT22;7888;46.748;8.102;2022-10-17T05:23:19;14.90;51.30
15574;DHT22;7888;46.748;8.102;2022-10-17T05:25:45;14.90;51.30
15574;DHT22;7888;46.748;8.102;2022-10-17T05:28:11;14.90;51.30
15574;DHT22;7888;46.748;8.102;2022-10-17T05:30:37;14.90;51.30
15574;DHT22;7888;46.748;8.102;2022-10-17T05:33:03;14.90;51.20
15574;DHT22;7888;46.748;8.102;2022-10-17T05:35:28;14.90;51.10
15574;DHT22;7888;46.748;8.102;2022-10-17T05:37:54;14.90;51.30
15574;DHT22;7888;46.748;8.102;2022-10-17T05:40:20;14.80;51.60
15574;DHT22;7888;46.748;8.102;2022-10-17T05:42:47;14.90;51.50
15574;DHT22;7888;46.748;8.102;2022-10-17T05:45:14;14.80;51.60
15574;DHT22;7888;46.748;8.102;2022-10-17T05:47:40;14.90;51.80
15574;DHT22;7888;46.748;8.102;2022-10-17T05:50:07;14.90;51.90
15574;DHT22;7888;46.748;8.102;2022-10-17T05:52:33;14.90;52.00
15574;DHT22;7888;46.748;8.102;2022-10-17T05:54:59;14.90;52.00
15574;DHT22;7888;46.748;8.102;2022-10-17T05:57:25;14.90;52.10
15574;DHT22;7888;46.748;8.102;2022-10-17T05:59:51;14.80;52.20
15574;DHT22;7888;46.748;8.102;2022-10-17T06:02:17;14.80;52.30
15574;DHT22;7888;46.748;8.102;2022-10-17T06:04:43;14.80;52.30
15574;DHT22;7888;46.748;8.102;2022-10-17T06:07:11;14.80;52.40
15574;DHT22;7888;46.748;8.102;2022-10-17T06:09:38;14.80;52.50
15574;DHT22;7888;46.748;8.102;2022-10-17T06:12:04;14.80;52.40
15574;DHT22;7888;46.748;8.102;2022-10-17T06:14:31;14.80;52.30
15574;DHT22;7888;46.748;8.102;2022-10-17T06:16:57;14.80;52.40
15574;DHT22;7888;46.748;8.102;2022-10-17T06:19:23;14.80;52.40
15574;DHT22;7888;46.748;8.102;2022-10-17T06:21:49;14.80;52.60
15574;DHT22;7888;46.748;8.102;2022-10-17T06:24:15;14.80;52.60
15574;DHT22;7888;46.748;8.102;2022-10-17T06:26:41;14.80;52.70
15574;DHT22;7888;46.748;8.102;2022-10-17T06:29:07;14.80;52.80
15574;DHT22;7888;46.748;8.102;2022-10-17T06:31:33;14.80;52.70
15574;DHT22;7888;46.748;8.102;2022-10-17T06:33:59;14.80;52.40
15574;DHT22;7888;46.748;8.102;2022-10-17T06:36:25;14.80;52.60
15574;DHT22;7888;46.748;8.102;2022-10-17T06:38:51;14.80;52.60
15574;DHT22;7888;46.748;8.102;2022-10-17T06:41:17;14.80;52.70
15574;DHT22;7888;46.748;8.102;2022-10-17T06:43:46;14.80;52.70
15574;DHT22;7888;46.748;8.102;2022-10-17T06:46:17;14.90;53.00
15574;DHT22;7888;46.748;8.102;2022-10-17T06:48:43;14.90;53.10
15574;DHT22;7888;46.748;8.102;2022-10-17T06:51:10;14.90;53.10
15574;DHT22;7888;46.748;8.102;2022-10-17T06:53:38;15.00;53.40
15574;DHT22;7888;46.748;8.102;2022-10-17T06:56:06;15.10;53.50
15574;DHT22;7888;46.748;8.102;2022-10-17T06:58:35;15.10;53.60
15574;DHT22;7888;46.748;8.102;2022-10-17T07:01:10;15.20;53.60
15574;DHT22;7888;46.748;8.102;2022-10-17T07:03:37;15.30;53.60
15574;DHT22;7888;46.748;8.102;2022-10-17T07:06:04;15.30;53.40
15574;DHT22;7888;46.748;8.102;2022-10-17T07:08:30;15.40;53.30
15574;DHT22;7888;46.748;8.102;2022-10-17T07:10:56;15.50;53.40
15574;DHT22;7888;46.748;8.102;2022-10-17T07:13:23;15.50;53.50
15574;DHT22;7888;46.748;8.102;2022-10-17T07:15:49;15.70;53.70
15574;DHT22;7888;46.748;8.102;2022-10-17T07:18:15;15.70;53.60
15574;DHT22;7888;46.748;8.102;2022-10-17T07:20:41;15.80;53.60
15574;DHT22;7888;46.748;8.102;2022-10-17T07:23:07;15.90;53.60
15574;DHT22;7888;46.748;8.102;2022-10-17T07:25:33;16.00;53.50
15574;DHT22;7888;46.748;8.102;2022-10-17T07:27:58;16.10;53.70
15574;DHT22;7888;46.748;8.102;2022-10-17T07:30:24;16.20;53.80
15574;DHT22;7888;46.748;8.102;2022-10-17T07:32:53;16.40;53.90
15574;DHT22;7888;46.748;8.102;2022-10-17T07:35:19;16.50;53.90
15574;DHT22;7888;46.748;8.102;2022-10-17T07:37:46;16.70;53.80
15574;DHT22;7888;46.748;8.102;2022-10-17T07:40:12;16.80;53.80
15574;DHT22;7888;46.748;8.102;2022-10-17T07:42:38;16.90;53.60
15574;DHT22;7888;46.748;8.102;2022-10-17T07:45:04;17.00;53.60
15574;DHT22;7888;46.748;8.102;2022-10-17T07:47:30;17.20;53.80
15574;DHT22;7888;46.748;8.102;2022-10-17T07:50:00;17.30;53.60
15574;DHT22;7888;46.748;8.102;2022-10-17T07:52:27;17.50;53.30
15574;DHT22;7888;46.748;8.102;2022-10-17T07:54:53;17.60;53.10
15574;DHT22;7888;46.748;8.102;2022-10-17T07:57:18;17.70;52.90
15574;DHT22;7888;46.748;8.102;2022-10-17T07:59:44;17.90;52.90
15574;DHT22;7888;46.748;8.102;2022-10-17T08:02:20;18.00;52.70
15574;DHT22;7888;46.748;8.102;2022-10-17T08:04:48;18.10;51.60
15574;DHT22;7888;46.748;8.102;2022-10-17T08:07:14;18.30;51.70
15574;DHT22;7888;46.748;8.102;2022-10-17T08:09:41;18.40;51.60
15574;DHT22;7888;46.748;8.102;2022-10-17T08:12:07;18.50;51.70
15574;DHT22;7888;46.748;8.102;2022-10-17T08:14:33;18.60;51.80
15574;DHT22;7888;46.748;8.102;2022-10-17T08:16:59;18.70;51.60
15574;DHT22;7888;46.748;8.102;2022-10-17T08:19:25;18.80;51.40
15574;DHT22;7888;46.748;8.102;2022-10-17T08:21:51;18.90;51.60
15574;DHT22;7888;46.748;8.102;2022-10-17T08:24:19;18.90;51.50
15574;DHT22;7888;46.748;8.102;2022-10-17T08:26:45;19.10;51.30
15574;DHT22;7888;46.748;8.102;2022-10-17T08:29:15;19.10;51.30
15574;DHT22;7888;46.748;8.102;2022-10-17T08:31:41;19.20;51.20
15574;DHT22;7888;46.748;8.102;2022-10-17T08:34:07;19.30;51.30
15574;DHT22;7888;46.748;8.102;2022-10-17T08:36:33;19.30;51.40
15574;DHT22;7888;46.748;8.102;2022-10-17T08:38:59;19.40;51.30
15574;DHT22;7888;46.748;8.102;2022-10-17T08:42:24;19.50;51.80
15574;DHT22;7888;46.748;8.102;2022-10-17T08:48:04;19.80;50.70
15574;DHT22;7888;46.748;8.102;2022-10-17T08:50:45;19.80;50.40
15574;DHT22;7888;46.748;8.102;2022-10-17T08:53:21;19.90;50.10
15574;DHT22;7888;46.748;8.102;2022-10-17T08:56:09;20.00;50.20
15574;DHT22;7888;46.748;8.102;2022-10-17T08:58:42;20.10;50.30
15574;DHT22;7888;46.748;8.102;2022-10-17T09:01:41;20.30;50.40
15574;DHT22;7888;46.748;8.102;2022-10-17T09:10:03;20.70;50.20
15574;DHT22;7888;46.748;8.102;2022-10-17T09:13:06;20.80;50.20
15574;DHT22;7888;46.748;8.102;2022-10-17T09:16:18;21.00;49.90
15574;DHT22;7888;46.748;8.102;2022-10-17T09:19:09;21.20;49.90
15574;DHT22;7888;46.748;8.102;2022-10-17T09:21:52;21.40;49.30
15574;DHT22;7888;46.748;8.102;2022-10-17T09:24:43;21.50;49.00
15574;DHT22;7888;46.748;8.102;2022-10-17T09:27:35;21.70;48.50
15574;DHT22;7888;46.748;8.102;2022-10-17T09:32:52;22.10;48.60
15574;DHT22;7888;46.748;8.102;2022-10-17T09:35:19;22.10;48.60
15574;DHT22;7888;46.748;8.102;2022-10-17T09:37:48;22.20;48.40
15574;DHT22;7888;46.748;8.102;2022-10-17T09:40:33;22.30;48.30
15574;DHT22;7888;46.748;8.102;2022-10-17T09:43:01;22.50;47.70
15574;DHT22;7888;46.748;8.102;2022-10-17T09:45:32;22.60;48.00
15574;DHT22;7888;46.748;8.102;2022-10-17T09:48:27;22.70;47.90
15574;DHT22;7888;46.748;8.102;2022-10-17T09:51:00;22.90;47.40
15574;DHT22;7888;46.748;8.102;2022-10-17T09:53:30;23.00;47.40
15574;DHT22;7888;46.748;8.102;2022-10-17T09:56:07;23.10;46.90
15574;DHT22;7888;46.748;8.102;2022-10-17T09:58:48;23.20;46.70
15574;DHT22;7888;46.748;8.102;2022-10-17T10:01:20;23.30;46.30
15574;DHT22;7888;46.748;8.102;2022-10-17T10:04:13;23.40;46.40
15574;DHT22;7888;46.748;8.102;2022-10-17T10:07:03;23.50;45.50
15574;DHT22;7888;46.748;8.102;2022-10-17T10:09:32;23.60;45.60
15574;DHT22;7888;46.748;8.102;2022-10-17T10:12:04;23.60;46.10
15574;DHT22;7888;46.748;8.102;2022-10-17T10:14:40;23.70;46.10
15574;DHT22;7888;46.748;8.102;2022-10-17T10:20:00;23.90;45.30
15574;DHT22;7888;46.748;8.102;2022-10-17T10:22:26;24.00;45.80
15574;DHT22;7888;46.748;8.102;2022-10-17T10:25:15;24.00;45.50
15574;DHT22;7888;46.748;8.102;2022-10-17T10:27:43;24.00;45.00
15574;DHT22;7888;46.748;8.102;2022-10-17T10:30:19;24.10;45.50
15574;DHT22;7888;46.748;8.102;2022-10-17T10:32:50;24.20;44.90
15574;DHT22;7888;46.748;8.102;2022-10-17T10:35:34;24.30;45.40
15574;DHT22;7888;46.748;8.102;2022-10-17T10:38:03;24.40;44.00
15574;DHT22;7888;46.748;8.102;2022-10-17T10:40:49;24.50;45.10
15574;DHT22;7888;46.748;8.102;2022-10-17T10:45:59;24.80;44.70
15574;DHT22;7888;46.748;8.102;2022-10-17T10:48:34;24.90;44.60
15574;DHT22;7888;46.748;8.102;2022-10-17T10:51:06;25.10;44.40
15574;DHT22;7888;46.748;8.102;2022-10-17T10:53:51;25.20;44.50
15574;DHT22;7888;46.748;8.102;2022-10-17T10:56:28;25.30;44.80
15574;DHT22;7888;46.748;8.102;2022-10-17T10:59:30;25.40;44.10
15574;DHT22;7888;46.748;8.102;2022-10-17T11:05:49;25.60;44.00
15574;DHT22;7888;46.748;8.102;2022-10-17T11:19:30;26.00;42.30
15574;DHT22;7888;46.748;8.102;2022-10-17T11:22:14;26.10;42.50
15574;DHT22;7888;46.748;8.102;2022-10-17T11:24:53;26.10;42.70
15574;DHT22;7888;46.748;8.102;2022-10-17T11:27:33;26.20;41.90
15574;DHT22;7888;46.748;8.102;2022-10-17T11:29:59;26.30;41.90
15574;DHT22;7888;46.748;8.102;2022-10-17T11:32:34;26.40;42.30
15574;DHT22;7888;46.748;8.102;2022-10-17T11:35:12;26.50;41.80
15574;DHT22;7888;46.748;8.102;2022-10-17T11:40:40;26.70;41.60
15574;DHT22;7888;46.748;8.102;2022-10-17T11:43:13;26.80;41.80
15574;DHT22;7888;46.748;8.102;2022-10-17T11:45:46;26.80;40.80
15574;DHT22;7888;46.748;8.102;2022-10-17T11:48:29;26.90;41.30
15574;DHT22;7888;46.748;8.102;2022-10-17T11:51:12;26.90;40.70
15574;DHT22;7888;46.748;8.102;2022-10-17T11:54:23;26.90;40.70
15574;DHT22;7888;46.748;8.102;2022-10-17T12:03:04;27.30;40.30
15574;DHT22;7888;46.748;8.102;2022-10-17T12:05:49;27.50;40.30
15574;DHT22;7888;46.748;8.102;2022-10-17T12:08:24;27.70;40.70
15574;DHT22;7888;46.748;8.102;2022-10-17T12:11:23;27.80;40.10
15574;DHT22;7888;46.748;8.102;2022-10-17T12:13:59;27.90;39.40
15574;DHT22;7888;46.748;8.102;2022-10-17T12:21:27;28.10;39.30
15574;DHT22;7888;46.748;8.102;2022-10-17T12:24:43;28.20;39.50
15574;DHT22;7888;46.748;8.102;2022-10-17T12:27:34;28.20;39.00
15574;DHT22;7888;46.748;8.102;2022-10-17T12:30:20;28.40;39.10
15574;DHT22;7888;46.748;8.102;2022-10-17T12:35:43;28.60;37.80
15574;DHT22;7888;46.748;8.102;2022-10-17T12:38:20;28.70;37.80
15574;DHT22;7888;46.748;8.102;2022-10-17T12:40:51;28.80;37.00
15574;DHT22;7888;46.748;8.102;2022-10-17T12:45:57;28.90;37.80
15574;DHT22;7888;46.748;8.102;2022-10-17T12:56:33;29.30;37.20
15574;DHT22;7888;46.748;8.102;2022-10-17T13:01:58;29.40;36.30
15574;DHT22;7888;46.748;8.102;2022-10-17T13:04:26;29.40;36.30
15574;DHT22;7888;46.748;8.102;2022-10-17T13:06:56;29.40;36.30
15574;DHT22;7888;46.748;8.102;2022-10-17T13:09:37;29.40;36.30
15574;DHT22;7888;46.748;8.102;2022-10-17T13:12:16;29.50;35.50
15574;DHT22;7888;46.748;8.102;2022-10-17T13:14:47;29.50;35.90
15574;DHT22;7888;46.748;8.102;2022-10-17T13:17:25;29.50;36.30
15574;DHT22;7888;46.748;8.102;2022-10-17T13:19:56;29.60;35.50
15574;DHT22;7888;46.748;8.102;2022-10-17T13:22:26;29.70;36.10
15574;DHT22;7888;46.748;8.102;2022-10-17T13:25:14;29.80;35.80
15574;DHT22;7888;46.748;8.102;2022-10-17T13:27:41;29.90;35.40
15574;DHT22;7888;46.748;8.102;2022-10-17T13:30:24;29.90;36.10
15574;DHT22;7888;46.748;8.102;2022-10-17T13:32:52;30.00;35.80
15574;DHT22;7888;46.748;8.102;2022-10-17T13:35:27;30.10;36.20
15574;DHT22;7888;46.748;8.102;2022-10-17T13:37:56;30.20;35.30
15574;DHT22;7888;46.748;8.102;2022-10-17T13:40:27;30.40;35.80
15574;DHT22;7888;46.748;8.102;2022-10-17T13:42:57;30.40;36.30
15574;DHT22;7888;46.748;8.102;2022-10-17T13:48:01;30.70;36.20
15574;DHT22;7888;46.748;8.102;2022-10-17T13:55:37;30.80;33.80
15574;DHT22;7888;46.748;8.102;2022-10-17T13:58:16;30.90;34.30
15574;DHT22;7888;46.748;8.102;2022-10-17T14:00:45;30.80;33.40
15574;DHT22;7888;46.748;8.102;2022-10-17T14:03:15;30.80;33.80
15574;DHT22;7888;46.748;8.102;2022-10-17T14:06:07;30.80;34.10
15574;DHT22;7888;46.748;8.102;2022-10-17T14:14:03;30.90;34.10
15574;DHT22;7888;46.748;8.102;2022-10-17T14:16:39;31.00;33.80
15574;DHT22;7888;46.748;8.102;2022-10-17T14:22:23;31.00;33.30
15574;DHT22;7888;46.748;8.102;2022-10-17T14:24:52;31.10;32.90
15574;DHT22;7888;46.748;8.102;2022-10-17T14:27:33;31.10;33.40
15574;DHT22;7888;46.748;8.102;2022-10-17T14:32:56;31.00;32.80
15574;DHT22;7888;46.748;8.102;2022-10-17T14:35:25;31.00;32.30
15574;DHT22;7888;46.748;8.102;2022-10-17T14:37:56;30.90;32.90
15574;DHT22;7888;46.748;8.102;2022-10-17T14:40:25;30.90;32.60
15574;DHT22;7888;46.748;8.102;2022-10-17T14:42:55;30.80;33.10
15574;DHT22;7888;46.748;8.102;2022-10-17T14:45:26;30.70;33.50
15574;DHT22;7888;46.748;8.102;2022-10-17T14:47:59;30.70;33.90
15574;DHT22;7888;46.748;8.102;2022-10-17T14:50:30;30.70;33.70
15574;DHT22;7888;46.748;8.102;2022-10-17T14:53:19;30.80;33.20
15574;DHT22;7888;46.748;8.102;2022-10-17T14:55:57;30.80;32.90
15574;DHT22;7888;46.748;8.102;2022-10-17T14:58:26;30.90;32.90
15574;DHT22;7888;46.748;8.102;2022-10-17T15:01:00;30.80;33.00
15574;DHT22;7888;46.748;8.102;2022-10-17T15:03:26;30.70;32.20
15574;DHT22;7888;46.748;8.102;2022-10-17T15:05:53;30.60;32.00
15574;DHT22;7888;46.748;8.102;2022-10-17T15:08:21;30.50;31.90
15574;DHT22;7888;46.748;8.102;2022-10-17T15:10:48;30.30;32.30
15574;DHT22;7888;46.748;8.102;2022-10-17T15:13:15;30.10;32.70
15574;DHT22;7888;46.748;8.102;2022-10-17T15:15:42;30.00;33.00
15574;DHT22;7888;46.748;8.102;2022-10-17T15:18:11;29.90;32.80
15574;DHT22;7888;46.748;8.102;2022-10-17T15:20:39;29.80;32.80
15574;DHT22;7888;46.748;8.102;2022-10-17T15:23:05;29.80;33.20
15574;DHT22;7888;46.748;8.102;2022-10-17T15:25:31;29.70;33.10
15574;DHT22;7888;46.748;8.102;2022-10-17T15:27:57;29.60;33.20
15574;DHT22;7888;46.748;8.102;2022-10-17T15:30:29;29.60;33.30
15574;DHT22;7888;46.748;8.102;2022-10-17T15:32:57;29.60;33.40
15574;DHT22;7888;46.748;8.102;2022-10-17T15:35:24;29.50;33.40
15574;DHT22;7888;46.748;8.102;2022-10-17T15:37:51;29.50;33.20
15574;DHT22;7888;46.748;8.102;2022-10-17T15:40:25;29.40;32.70
15574;DHT22;7888;46.748;8.102;2022-10-17T15:42:54;29.30;32.80
15574;DHT22;7888;46.748;8.102;2022-10-17T15:45:23;29.20;33.00
15574;DHT22;7888;46.748;8.102;2022-10-17T15:48:04;29.00;33.40
15574;DHT22;7888;46.748;8.102;2022-10-17T15:50:31;28.80;33.20
15574;DHT22;7888;46.748;8.102;2022-10-17T15:52:58;28.70;34.00
15574;DHT22;7888;46.748;8.102;2022-10-17T15:55:24;28.50;34.30
15574;DHT22;7888;46.748;8.102;2022-10-17T15:57:51;28.40;34.10
15574;DHT22;7888;46.748;8.102;2022-10-17T16:00:20;28.30;34.40
15574;DHT22;7888;46.748;8.102;2022-10-17T16:02:48;28.20;34.00
15574;DHT22;7888;46.748;8.102;2022-10-17T16:05:17;28.10;34.10
15574;DHT22;7888;46.748;8.102;2022-10-17T16:07:50;28.00;34.30
15574;DHT22;7888;46.748;8.102;2022-10-17T16:10:21;28.00;34.50
15574;DHT22;7888;46.748;8.102;2022-10-17T16:12:47;27.90;34.10
15574;DHT22;7888;46.748;8.102;2022-10-17T16:15:22;27.80;33.90
15574;DHT22;7888;46.748;8.102;2022-10-17T16:17:51;27.70;34.10
15574;DHT22;7888;46.748;8.102;2022-10-17T16:20:18;27.60;34.30
15574;DHT22;7888;46.748;8.102;2022-10-17T16:22:45;27.40;34.10
15574;DHT22;7888;46.748;8.102;2022-10-17T16:25:21;27.30;34.30
15574;DHT22;7888;46.748;8.102;2022-10-17T16:27:51;27.10;34.20
15574;DHT22;7888;46.748;8.102;2022-10-17T16:30:19;27.00;34.90
15574;DHT22;7888;46.748;8.102;2022-10-17T16:32:46;26.90;34.70
15574;DHT22;7888;46.748;8.102;2022-10-17T16:35:18;26.80;34.60
15574;DHT22;7888;46.748;8.102;2022-10-17T16:37:45;26.70;34.70
15574;DHT22;7888;46.748;8.102;2022-10-17T16:40:12;26.50;35.00
15574;DHT22;7888;46.748;8.102;2022-10-17T16:42:38;26.40;35.20
15574;DHT22;7888;46.748;8.102;2022-10-17T16:45:04;26.20;35.30
15574;DHT22;7888;46.748;8.102;2022-10-17T16:47:31;26.10;36.20
15574;DHT22;7888;46.748;8.102;2022-10-17T16:49:56;26.00;35.60
15574;DHT22;7888;46.748;8.102;2022-10-17T16:52:22;25.90;35.90
15574;DHT22;7888;46.748;8.102;2022-10-17T16:54:48;25.70;35.80
15574;DHT22;7888;46.748;8.102;2022-10-17T16:57:15;25.60;35.80
15574;DHT22;7888;46.748;8.102;2022-10-17T16:59:41;25.50;36.10
15574;DHT22;7888;46.748;8.102;2022-10-17T17:02:09;25.40;36.30
15574;DHT22;7888;46.748;8.102;2022-10-17T17:04:35;25.30;36.60
15574;DHT22;7888;46.748;8.102;2022-10-17T17:07:01;25.20;36.70
15574;DHT22;7888;46.748;8.102;2022-10-17T17:09:27;25.10;36.80
15574;DHT22;7888;46.748;8.102;2022-10-17T17:11:53;24.90;36.90
15574;DHT22;7888;46.748;8.102;2022-10-17T17:14:19;24.80;37.00
15574;DHT22;7888;46.748;8.102;2022-10-17T17:16:44;24.70;37.10
15574;DHT22;7888;46.748;8.102;2022-10-17T17:19:13;24.60;37.40
15574;DHT22;7888;46.748;8.102;2022-10-17T17:21:41;24.50;37.60
15574;DHT22;7888;46.748;8.102;2022-10-17T17:24:12;24.40;37.80
15574;DHT22;7888;46.748;8.102;2022-10-17T17:26:38;24.30;37.80
15574;DHT22;7888;46.748;8.102;2022-10-17T17:29:06;24.20;37.90
15574;DHT22;7888;46.748;8.102;2022-10-17T17:31:33;24.10;38.00
15574;DHT22;7888;46.748;8.102;2022-10-17T17:34:01;24.00;38.20
15574;DHT22;7888;46.748;8.102;2022-10-17T17:36:30;23.90;38.20
15574;DHT22;7888;46.748;8.102;2022-10-17T17:38:59;23.80;38.40
15574;DHT22;7888;46.748;8.102;2022-10-17T17:41:26;23.70;38.30
15574;DHT22;7888;46.748;8.102;2022-10-17T17:43:53;23.70;38.60
15574;DHT22;7888;46.748;8.102;2022-10-17T17:46:21;23.50;38.50
15574;DHT22;7888;46.748;8.102;2022-10-17T17:48:49;23.50;38.60
15574;DHT22;7888;46.748;8.102;2022-10-17T17:51:18;23.40;38.70
15574;DHT22;7888;46.748;8.102;2022-10-17T17:53:45;23.30;38.70
15574;DHT22;7888;46.748;8.102;2022-10-17T17:56:21;23.20;39.00
15574;DHT22;7888;46.748;8.102;2022-10-17T17:58:54;23.00;38.90
15574;DHT22;7888;46.748;8.102;2022-10-17T18:01:29;22.90;39.10
15574;DHT22;7888;46.748;8.102;2022-10-17T18:03:57;22.90;39.30
15574;DHT22;7888;46.748;8.102;2022-10-17T18:06:24;22.80;39.40
15574;DHT22;7888;46.748;8.102;2022-10-17T18:08:53;22.70;39.40